Suches, GA

12:09 PM EST on January 27, 2015 (GMT -0500)
Grassy Gap AT | Change Station
CLOSE
Current Station
Personal Weather Station
Location: Suches, GA
Elevation: 2940 ft
Nearby Weather Stations

Elev 2940 ft 34.67 °N, 84.03 °W | Updated 19 seconds ago

Mostly Cloudy
Mostly Cloudy
35.1 °F
Feels Like 28 °F
N
9.2
Wind Variable Wind from SSE
Gusts 9.2 mph

Today
High -- | Low -- °F
--% Chance of Precip.
Yesterday
High -- | Low -- °F
Precip. -- in
7:38 AM 6:00 PM
First Quarter, 56% visible
Pressure 29.94 in
Visibility 10.0 miles
Clouds Scattered Clouds 2400 ft
Scattered Clouds 2900 ft
Mostly Cloudy 3900 ft
Windchill 28 °F
Dew Point 30 °F
Humidity 80%
Rainfall 0.00 in
Snow Depth Not available.
UV 2 out of 12
Pollen 1.80 out of 12
Air Quality Not available.
Flu Activity Not available.
METAR KRHP 271655Z AUTO 06006G09KT 10SM SCT024 SCT029 BKN039 01/M03 A2994 RMK AO2 T00101031

More Conditions Fewer Conditions

Pressure 29.94 in
Visibility 10.0 miles
Clouds Scattered Clouds 2400 ft
Scattered Clouds 2900 ft
Mostly Cloudy 3900 ft
Windchill 28 °F
Dew Point 30 °F
Humidity 80%
Rainfall 0.00 in
Snow Depth Not available.
UV 2 out of 12
Pollen 1.80 out of 12
Air Quality Not available.
Flu Activity Not available.
METAR KRHP 271655Z AUTO 06006G09KT 10SM SCT024 SCT029 BKN039 01/M03 A2994 RMK AO2 T00101031

More Conditions Fewer Conditions

10-Day Weather Forecast

Almanac

Astronomy

Jan. 27, 2015 Rise Set
Actual Time
Civil Twilight
Nautical Twilight
Astronomical Twilight
Moon
Length of Visible Light
Length of Day
Tomorrow will be .
, % of the Moon is Illuminated

Today's Extremes

State Highs State Lows

Community

WunderPhotos

Upload Photos

1,790,729 photos uploaded!

WunderBlogs® & News

Nearby

Air Quality

  Air Quality AQ Index Pollutant
Not available.

Snow Depth

Station Depth Elevation

Earthquake Activity

City Distance Mag. Time & Date
Minimum magnitude displayed is 2.5.

Coastal Water Temperatures

Place Temperature

Nearby Weather Stations